Flight Track Log - Related Links

Times and Time Zones

All times are in EDT time to prevent confusion due to time zone crossing. See the UCA597 flight status page for this flight to view local times or setup timezone preferences in your user account.

Time Position Orientation Groundspeed Altitude Reporting Facility
EDT Latitude Longitude Course Direction KTS MPH feet Rate Location/Type
Sat 06:35:49 PM 38.9500 -77.5189 North 131 151 2,300  Level Washington Center
Sat 06:36:49 PM 38.9725 -77.5461 317° Northwest 143 165 4,200 1,576 Climbing Washington Center
Sat 06:37:47 PM 39.0103 -77.5417 North 180 207 5,400 1,462 Climbing Washington Center
Sat 06:38:48 PM 39.0644 -77.5297 10° North 187 215 7,100 1,736 Climbing Washington Center
Sat 06:39:48 PM 39.1167 -77.5206 North 187 215 8,900 2,000 Climbing Washington Center
Sat 06:40:48 PM 39.1689 -77.5139 North 187 215 11,100 1,934 Climbing Washington Center
Sat 06:41:00 PM 39.3510 -77.4500 North  Level FlightAware Approximate
Sat 06:41:49 PM 39.2150 -77.5097 North 177 204 12,800  Level Washington Center
Sat 06:42:47 PM 39.2608 -77.5056 North 172 198 14,300 1,513 Climbing Washington Center
Sat 06:43:48 PM 39.3069 -77.4986 North 172 198 15,800 1,033 Climbing Washington Center
Sat 06:44:49 PM 39.3611 -77.4919 North 172 198 16,400 793 Climbing Washington Center
Sat 06:45:49 PM 39.4239 -77.4831 North 193 222 17,400 808 Climbing Washington Center
Sat 06:48:02 PM 39.5625 -77.4689 North 226 260 19,000 497 Climbing New York Center
Sat 06:49:02 PM 39.6364 -77.4542 North 251 289 19,000  Level New York Center
Sat 06:50:02 PM 39.7117 -77.4506 North 258 297 19,000  Level New York Center
Sat 06:51:02 PM 39.7864 -77.4197 18° North 270 311 19,000  Level New York Center
Sat 06:52:02 PM 39.8594 -77.3808 22° Northeast 275 316 19,000  Level New York Center
Sat 06:53:02 PM 39.9303 -77.3442 22° Northeast 280 322 19,000  Level New York Center
Sat 06:54:02 PM 40.0119 -77.3003 22° Northeast 280 322 19,000  Level New York Center
Sat 06:55:02 PM 40.0808 -77.2633 22° Northeast 280 322 19,000  Level New York Center
Sat 06:56:02 PM 40.1622 -77.2219 21° North 280 322 19,000  Level New York Center
Sat 06:57:02 PM 40.2289 -77.1875 22° Northeast 280 322 19,000  Level New York Center
Sat 06:58:02 PM 40.3125 -77.1433 22° Northeast 280 322 19,000  Level New York Center
Sat 06:59:02 PM 40.3811 -77.1089 21° North 280 322 19,000  Level New York Center
Sat 07:00:02 PM 40.4625 -77.0644 23° Northeast 285 328 19,000  Level New York Center
Sat 07:01:02 PM 40.5333 -77.0272 22° Northeast 285 328 19,000 -250 Level New York Center
Sat 07:02:02 PM 40.6169 -76.9828 22° Northeast 290 334 18,500 -550 Descending New York Center
Sat 07:03:02 PM 40.6900 -76.9431 22° Northeast 301 346 17,900 -700 Descending New York Center
Sat 07:04:02 PM 40.7778 -76.8961 22° Northeast 301 346 17,100 -450 Descending New York Center
Sat 07:05:02 PM 40.8486 -76.8586 22° Northeast 301 346 17,000 -50 Descending New York Center
Sat 07:06:02 PM 40.9322 -76.8139 22° Northeast 301 346 17,000  Level New York Center
Sat 07:07:02 PM 41.0072 -76.7708 23° Northeast 296 341 17,000  Level New York Center
Sat 07:08:02 PM 41.0822 -76.7336 21° North 296 341 17,000  Level New York Center
Sat 07:09:02 PM 41.1569 -76.6933 22° Northeast 291 335 17,000  Level New York Center
Sat 07:10:02 PM 41.2300 -76.6500 24° Northeast 291 335 17,000  Level New York Center
Sat 07:11:02 PM 41.2986 -76.6117 23° Northeast 286 329 17,000  Level New York Center
Sat 07:12:02 PM 41.3736 -76.5711 22° Northeast 286 329 17,000  Level New York Center
Sat 07:13:02 PM 41.4589 -76.5261 22° Northeast 286 329 17,000 -350 Level New York Center
Sat 07:14:02 PM 41.5358 -76.4856 22° Northeast 286 329 16,300 -850 Descending New York Center
Sat 07:15:02 PM 41.6153 -76.4394 23° Northeast 298 343 15,300 -950 Descending New York Center
Sat 07:16:02 PM 41.6878 -76.4011 22° Northeast 298 343 14,400 -3,150 Descending New York Center
Sat 07:17:02 PM 41.7733 -76.3528 23° Northeast 298 343 9,000 -2,700 Descending New York Center
Sat 07:18:02 PM 41.8461 -76.3117 23° Northeast 293 337 9,000  Level New York Center
Sat 07:19:02 PM 41.9167 -76.2700 24° Northeast 277 319 9,000  Level New York Center
Sat 07:20:02 PM 41.9786 -76.2389 20° North 266 306 9,000  Level New York Center
Sat 07:21:02 PM 42.0289 -76.1844 39° Northeast 241 277 9,000  Level New York Center
Sat 07:22:02 PM 42.0836 -76.1247 39° Northeast 235 270 9,000  Level New York Center
Sat 07:23:02 PM 42.1222 -76.0581 52° Northeast 220 253 9,000  Level New York Center
Sat 07:24:02 PM 42.1478 -75.9986 60° Northeast 202 232 9,000  Level New York Center
Sat 07:25:02 PM 42.1800 -75.9731 30° Northeast 169 194 9,000  Level New York Center
Sat 07:26:02 PM 42.2053 -75.9161 59° Northeast 169 194 9,000  Level New York Center
Sat 07:27:02 PM 42.2325 -75.8681 53° Northeast 169 194 9,000  Level New York Center
Sat 07:28:02 PM 42.2614 -75.8225 49° Northeast 169 194 9,000  Level New York Center
Sat 07:29:02 PM 42.2883 -75.7742 53° Northeast 169 194 9,000  Level New York Center

Login

Don't have an account? Register now (free) for customized features, flight alerts, and more!